Time;durP1;ratioP1;P1;durP2;ratioP2;P2;SDS_P1;SDS_P2;PMS_P1;PMS_P2;Temp;Humidity;BMP_temperature;BMP_pressure;BME280_temperature;BME280_humidity;BME280_pressure;Samples;Min_cycle;Max_cycle;Signal;HPM_P1;HPM_P2
2023/06/03 00:00:23;;;;;;;1.05;0.82;;;;;;;14.58;72.08;102277.09;5093749;27;101021;-28
2023/06/03 00:02:52;;;;;;;2.30;1.40;;;;;;;14.56;71.49;102270.88;5094037;27;96777;-27
2023/06/03 00:05:21;;;;;;;2.75;1.35;;;;;;;14.63;71.14;102285.00;5075070;27;101517;-27
2023/06/03 00:07:46;;;;;;;1.70;1.15;;;;;;;14.59;71.50;102281.59;5074971;27;100857;-27
2023/06/03 00:10:12;;;;;;;1.90;1.00;;;;;;;14.56;71.76;102284.50;5093810;27;96495;-27
2023/06/03 00:12:38;;;;;;;2.53;1.30;;;;;;;14.56;71.67;102286.31;5075084;27;96996;-27
2023/06/03 00:15:03;;;;;;;2.10;1.17;;;;;;;14.50;71.83;102279.34;5093353;27;99610;-27
2023/06/03 00:17:30;;;;;;;1.65;1.20;;;;;;;14.51;71.28;102280.22;5093765;27;97158;-27
2023/06/03 00:19:56;;;;;;;3.85;1.00;;;;;;;14.51;71.68;102277.47;5074264;27;97365;-27
2023/06/03 00:22:21;;;;;;;3.75;1.23;;;;;;;14.50;71.94;102279.34;5074932;27;97146;-27
2023/06/03 00:24:48;;;;;;;3.20;1.38;;;;;;;14.49;71.51;102282.13;5093588;27;98421;-27
2023/06/03 00:27:13;;;;;;;1.98;1.00;;;;;;;14.49;71.50;102280.31;5093540;27;97287;-27
2023/06/03 00:29:38;;;;;;;2.30;1.27;;;;;;;14.43;71.91;102278.78;5093582;27;96509;-27
2023/06/03 00:32:04;;;;;;;2.88;1.27;;;;;;;14.37;71.79;102264.59;5093486;27;96733;-27
2023/06/03 00:34:30;;;;;;;2.50;1.33;;;;;;;14.40;71.36;102278.97;5093111;27;97967;-27
2023/06/03 00:36:55;;;;;;;2.78;1.48;;;;;;;14.30;72.11;102271.34;5093474;27;97891;-28
2023/06/03 00:39:22;;;;;;;2.38;1.35;;;;;;;14.34;72.27;102283.88;5093475;27;96598;-27
2023/06/03 00:41:47;;;;;;;1.55;1.20;;;;;;;14.31;72.07;102287.63;5074796;27;96811;-27
2023/06/03 00:44:13;;;;;;;3.22;1.27;;;;;;;14.26;71.90;102270.66;5092343;27;99330;-27
2023/06/03 00:46:38;;;;;;;3.78;1.20;;;;;;;14.25;72.57;102282.50;5093592;27;97228;-27
2023/06/03 00:49:04;;;;;;;2.28;1.25;;;;;;;14.28;71.79;102281.47;5093029;27;96630;-27
2023/06/03 00:51:33;;;;;;;1.27;0.90;;;;;;;14.27;71.94;102279.72;5093058;27;96809;-28
2023/06/03 00:53:59;;;;;;;4.07;1.08;;;;;;;14.26;71.65;102277.97;5074448;27;101053;-27
2023/06/03 00:56:26;;;;;;;5.47;1.30;;;;;;;14.22;71.86;102274.50;5074407;27;101087;-27
2023/06/03 00:58:51;;;;;;;4.53;1.48;;;;;;;14.24;72.11;102278.91;5074445;27;96647;-27
2023/06/03 01:01:19;;;;;;;2.65;1.13;;;;;;;14.23;71.92;102279.00;5093310;27;96742;-26
2023/06/03 01:03:45;;;;;;;1.83;1.13;;;;;;;14.18;71.71;102272.91;5092325;27;99338;-27
2023/06/03 01:06:45;;;;;;;3.97;1.75;;;;;;;14.19;71.73;102278.28;5074383;27;100776;-27
2023/06/03 01:09:41;;;;;;;1.92;1.05;;;;;;;14.17;71.58;102272.03;5092523;27;96484;-27
2023/06/03 01:12:17;;;;;;;2.58;1.40;;;;;;;14.10;71.89;102269.72;5092930;27;96787;-27
2023/06/03 01:14:54;;;;;;;2.47;1.35;;;;;;;14.11;71.58;102276.91;5074307;27;100913;-27
2023/06/03 01:17:21;;;;;;;1.85;1.20;;;;;;;14.13;71.50;102273.16;5074262;27;99929;-27
2023/06/03 01:19:50;;;;;;;2.40;1.35;;;;;;;14.10;71.17;102270.59;5092814;27;96600;-27
2023/06/03 01:22:20;;;;;;;1.40;0.93;;;;;;;14.01;71.52;102254.72;5092923;27;96636;-27
2023/06/03 01:24:48;;;;;;;4.35;1.48;;;;;;;14.05;71.40;102272.69;5092822;27;99609;-27
2023/06/03 01:27:13;;;;;;;1.83;1.10;;;;;;;13.99;71.56;102268.47;5077827;27;99527;-27
2023/06/03 01:29:43;;;;;;;2.42;1.45;;;;;;;13.99;71.62;102273.91;5096158;27;96597;-27
2023/06/03 01:32:15;;;;;;;1.85;1.13;;;;;;;14.00;71.59;102272.06;5096063;27;96791;-27
2023/06/03 01:34:42;;;;;;;2.55;1.10;;;;;;;13.93;71.25;102268.78;5076917;27;100870;-27
2023/06/03 01:37:08;;;;;;;2.20;0.98;;;;;;;13.86;71.29;102270.06;5076707;27;100779;-27
2023/06/03 01:39:37;;;;;;;3.13;1.35;;;;;;;13.88;71.98;102281.75;5077419;27;96693;-27
2023/06/03 01:42:03;;;;;;;1.25;0.80;;;;;;;13.81;71.98;102267.56;5077528;27;96862;-27
2023/06/03 01:44:28;;;;;;;4.10;1.40;;;;;;;13.84;72.12;102285.59;5095803;27;99066;-27
2023/06/03 01:46:54;;;;;;;1.88;1.17;;;;;;;13.79;71.98;102282.25;5095673;27;99141;-27
2023/06/03 01:49:19;;;;;;;1.88;1.05;;;;;;;13.75;71.65;102278.81;5095936;27;96505;-27
2023/06/03 01:51:45;;;;;;;1.42;0.95;;;;;;;13.76;71.89;102282.41;5096008;27;96873;-27
2023/06/03 01:54:11;;;;;;;1.50;1.10;;;;;;;13.72;72.02;102283.50;5095812;27;97986;-27
2023/06/03 01:56:36;;;;;;;4.72;1.10;;;;;;;13.72;72.09;102287.13;5095989;27;97859;-27
2023/06/03 01:59:01;;;;;;;1.80;1.05;;;;;;;13.74;71.70;102287.03;5095441;27;96563;-27
2023/06/03 02:01:27;;;;;;;2.13;1.45;;;;;;;13.65;72.45;102276.63;5096023;27;96751;-27
2023/06/03 02:03:52;;;;;;;1.95;0.93;;;;;;;13.71;71.52;102287.22;5095751;27;97899;-27
2023/06/03 02:06:18;;;;;;;2.38;1.20;;;;;;;13.70;72.31;102286.31;5095218;27;99593;-28
2023/06/03 02:08:43;;;;;;;1.85;1.05;;;;;;;13.68;72.10;102276.47;5095534;27;97039;-27
2023/06/03 02:11:08;;;;;;;1.60;1.02;;;;;;;13.68;71.77;102284.63;5095869;27;96790;-27
2023/06/03 02:13:34;;;;;;;1.33;0.95;;;;;;;13.67;71.99;102278.31;5095064;27;111968;-27
2023/06/03 02:15:59;;;;;;;3.45;1.35;;;;;;;13.65;71.92;102269.31;5095986;27;97687;-27
2023/06/03 02:18:26;;;;;;;3.30;1.20;;;;;;;13.65;71.63;102272.06;5095338;27;104632;-28
2023/06/03 02:20:52;;;;;;;3.20;1.25;;;;;;;13.61;71.57;102273.19;5095508;27;96858;-27
2023/06/03 02:23:17;;;;;;;2.85;1.25;;;;;;;13.55;71.57;102270.78;5094488;27;99622;-27
2023/06/03 02:25:42;;;;;;;3.13;1.10;;;;;;;13.52;71.84;102274.53;5095062;27;105463;-27
2023/06/03 02:28:08;;;;;;;5.20;1.30;;;;;;;13.46;71.84;102263.06;5095335;27;96533;-27
2023/06/03 02:30:33;;;;;;;2.03;1.20;;;;;;;13.48;72.23;102262.03;5095667;27;96793;-27
2023/06/03 02:32:59;;;;;;;3.80;1.15;;;;;;;13.47;72.75;102259.41;5094993;27;98383;-27
2023/06/03 02:35:24;;;;;;;3.25;1.30;;;;;;;13.44;72.00;102249.53;5094769;27;99297;-28
2023/06/03 02:37:50;;;;;;;3.83;0.98;;;;;;;13.45;71.46;102256.75;5094774;27;99848;-27
2023/06/03 02:40:16;;;;;;;2.33;1.02;;;;;;;13.48;71.69;102261.16;5077049;27;96924;-28
2023/06/03 02:42:41;;;;;;;2.15;1.35;;;;;;;13.46;72.11;102260.34;5095123;27;97916;-27
2023/06/03 02:45:07;;;;;;;6.50;1.50;;;;;;;13.42;72.05;102251.47;5094794;27;99536;-28
2023/06/03 02:47:33;;;;;;;1.73;1.17;;;;;;;13.40;71.52;102261.56;5094376;27;96676;-27
2023/06/03 02:49:58;;;;;;;2.42;1.30;;;;;;;13.42;71.97;102256.91;5095011;27;96837;-26
2023/06/03 02:52:23;;;;;;;1.92;1.10;;;;;;;13.43;71.75;102261.38;5094931;27;97913;-27
2023/06/03 02:54:49;;;;;;;1.85;1.20;;;;;;;13.42;71.93;102259.63;5094848;27;102993;-27
2023/06/03 02:57:15;;;;;;;1.92;1.15;;;;;;;13.46;71.35;102261.22;5076349;27;96588;-27
2023/06/03 02:59:42;;;;;;;3.10;1.23;;;;;;;13.37;71.77;102262.59;5095171;27;96767;-27
2023/06/03 03:02:07;;;;;;;5.68;1.55;;;;;;;13.41;71.59;102276.91;5076109;27;98964;-27
2023/06/03 03:04:36;;;;;;;2.20;1.38;;;;;;;13.35;71.37;102259.06;5094907;27;97853;-28
2023/06/03 03:07:05;;;;;;;2.33;1.35;;;;;;;13.35;71.56;102269.94;5076281;27;96794;-27
2023/06/03 03:09:31;;;;;;;2.35;1.20;;;;;;;13.35;71.57;102264.50;5094691;27;96744;-27
2023/06/03 03:11:56;;;;;;;6.75;1.40;;;;;;;13.31;71.53;102260.16;5093939;27;99502;-27
2023/06/03 03:14:21;;;;;;;2.70;1.20;;;;;;;13.31;71.88;102271.06;5094488;27;99269;-27
2023/06/03 03:16:47;;;;;;;2.35;1.20;;;;;;;13.25;71.54;102263.19;5094332;27;105658;-27
2023/06/03 03:19:13;;;;;;;2.95;1.50;;;;;;;13.22;71.64;102278.75;5094187;27;96835;-27
2023/06/03 03:21:38;;;;;;;2.38;1.17;;;;;;;13.24;72.03;102279.56;5075620;27;101135;-27
2023/06/03 03:24:04;;;;;;;1.73;1.15;;;;;;;13.19;71.56;102274.38;5094226;27;98782;-27
2023/06/03 03:26:29;;;;;;;2.28;1.40;;;;;;;13.21;71.59;102271.56;5094267;27;96735;-26
2023/06/03 03:28:56;;;;;;;1.92;1.17;;;;;;;13.25;71.66;102275.88;5094628;27;96780;-27
2023/06/03 03:31:21;;;;;;;2.60;1.33;;;;;;;13.22;71.20;102274.19;5094514;27;97456;-27
2023/06/03 03:33:50;;;;;;;2.50;1.33;;;;;;;13.22;71.50;102278.75;5093863;27;97915;-27
2023/06/03 03:36:22;;;;;;;2.72;1.30;;;;;;;13.16;71.57;102271.81;5071538;27;96808;-27
2023/06/03 03:38:59;;;;;;;2.13;1.13;;;;;;;13.14;71.42;102279.16;5072186;27;96716;-27
2023/06/03 03:41:25;;;;;;;1.75;1.20;;;;;;;13.09;71.61;102271.22;5072216;27;101524;-27
2023/06/03 03:43:51;;;;;;;1.48;1.00;;;;;;;13.08;71.71;102274.88;5073444;27;97894;-28
2023/06/03 03:46:16;;;;;;;4.50;1.58;;;;;;;13.11;71.52;102273.88;5073540;27;96503;-28
2023/06/03 03:48:41;;;;;;;2.70;1.15;;;;;;;13.03;71.41;102273.34;5072660;27;96834;-27
2023/06/03 03:51:07;;;;;;;2.47;1.45;;;;;;;13.01;71.66;102278.84;5073020;27;111024;-27
2023/06/03 03:53:35;;;;;;;3.67;1.48;;;;;;;12.97;71.40;102279.97;5073439;27;99165;-27
2023/06/03 03:56:01;;;;;;;2.30;1.33;;;;;;;12.98;71.67;102278.13;5072071;27;96752;-27
2023/06/03 03:58:43;;;;;;;2.90;1.30;;;;;;;13.01;72.01;102283.41;5073532;27;96774;-27
2023/06/03 04:01:17;;;;;;;5.10;1.30;;;;;;;13.01;71.70;102277.97;5071355;27;101534;-27
2023/06/03 04:03:48;;;;;;;1.70;1.13;;;;;;;12.99;71.31;102271.72;5071633;27;100893;-27
2023/06/03 04:06:24;;;;;;;1.48;1.08;;;;;;;12.93;71.36;102272.91;5073467;27;96680;-27
2023/06/03 04:08:52;;;;;;;3.38;1.30;;;;;;;12.96;71.68;102283.63;5071989;27;96718;-27
2023/06/03 04:11:25;;;;;;;2.78;1.40;;;;;;;12.95;71.32;102280.03;5054618;27;100849;-27
2023/06/03 04:13:51;;;;;;;2.03;1.33;;;;;;;12.94;71.35;102277.38;5071574;27;100831;-28
2023/06/03 04:16:46;;;;;;;2.80;1.30;;;;;;;12.93;71.47;102279.22;5073022;27;96477;-27
2023/06/03 04:19:32;;;;;;;2.58;1.50;;;;;;;12.91;71.35;102277.53;5071915;27;96709;-27
2023/06/03 04:21:59;;;;;;;2.03;1.15;;;;;;;12.93;71.04;102289.25;5073207;27;98035;-27
2023/06/03 04:24:25;;;;;;;3.08;1.20;;;;;;;12.94;71.09;102289.19;5071236;27;100467;-27
2023/06/03 04:26:51;;;;;;;2.20;1.17;;;;;;;12.94;71.21;102291.00;5071011;27;96967;-27
2023/06/03 04:29:17;;;;;;;3.03;1.38;;;;;;;12.91;70.78;102283.00;5072977;27;96735;-27
2023/06/03 04:31:42;;;;;;;2.50;1.20;;;;;;;12.92;70.69;102279.34;5071033;27;100859;-27
2023/06/03 04:34:08;;;;;;;1.85;1.35;;;;;;;12.93;70.29;102281.94;5072162;27;98985;-27
2023/06/03 04:36:33;;;;;;;5.13;1.30;;;;;;;12.91;70.87;102277.53;5080243;27;108107;-27
2023/06/03 04:38:58;;;;;;;3.97;1.63;;;;;;;12.93;70.57;102281.94;5093501;27;96899;-27
2023/06/03 04:41:27;;;;;;;2.30;1.27;;;;;;;12.91;70.19;102283.88;5092876;27;112186;-27
2023/06/03 04:43:53;;;;;;;2.60;1.33;;;;;;;12.88;69.88;102283.16;5074966;27;100679;-27
2023/06/03 04:46:19;;;;;;;3.63;1.50;;;;;;;12.82;70.22;102278.00;5093311;27;96696;-27
2023/06/03 04:48:47;;;;;;;2.55;1.55;;;;;;;12.88;69.89;102285.88;5074553;27;96786;-27
2023/06/03 04:51:13;;;;;;;1.45;1.08;;;;;;;12.84;70.19;102284.25;5074084;27;99022;-27
2023/06/03 04:53:40;;;;;;;6.18;1.60;;;;;;;12.88;69.82;102291.31;5092954;27;99160;-27
2023/06/03 04:56:08;;;;;;;1.65;1.08;;;;;;;12.78;69.81;102281.84;5074487;27;96631;-27
2023/06/03 04:58:35;;;;;;;3.08;1.35;;;;;;;12.87;69.82;102287.72;5093271;27;96776;-26
2023/06/03 05:01:03;;;;;;;2.28;1.20;;;;;;;12.84;69.61;102284.25;5076473;27;100925;-27
2023/06/03 05:03:29;;;;;;;12.25;1.83;;;;;;;12.88;69.44;102291.31;5077604;27;100990;-27
2023/06/03 05:05:54;;;;;;;2.85;1.20;;;;;;;12.91;69.42;102293.88;5096588;27;96678;-27
2023/06/03 05:08:19;;;;;;;1.77;1.25;;;;;;;12.94;69.56;102305.50;5097305;27;99963;-27
2023/06/03 05:10:45;;;;;;;2.78;1.33;;;;;;;12.97;69.31;102296.31;5096357;27;99749;-27
2023/06/03 05:13:10;;;;;;;3.72;1.48;;;;;;;12.97;69.14;102299.03;5096604;27;104759;-27
2023/06/03 05:15:37;;;;;;;3.03;1.02;;;;;;;12.99;68.92;102299.84;5096342;27;96716;-27
2023/06/03 05:18:02;;;;;;;2.58;1.40;;;;;;;13.09;68.77;102309.31;5095950;27;96912;-27
2023/06/03 05:20:28;;;;;;;6.15;1.17;;;;;;;13.17;68.74;102312.50;5096544;27;97816;-27
2023/06/03 05:22:54;;;;;;;1.75;1.23;;;;;;;13.21;68.45;102317.84;5077596;27;100818;-26
2023/06/03 05:25:19;;;;;;;2.03;1.27;;;;;;;13.25;68.39;102317.59;5096416;27;96588;-27
2023/06/03 05:27:45;;;;;;;2.42;1.38;;;;;;;13.28;68.04;102309.31;5096169;27;96770;-27
2023/06/03 05:30:11;;;;;;;2.03;1.40;;;;;;;13.29;68.11;102313.78;5096560;27;97399;-27
2023/06/03 05:32:36;;;;;;;1.65;1.25;;;;;;;13.37;67.94;102318.84;5096022;27;98612;-27
2023/06/03 05:35:02;;;;;;;4.10;1.33;;;;;;;13.46;67.80;102314.78;5096436;27;96492;-27
2023/06/03 05:37:27;;;;;;;3.92;1.08;;;;;;;13.51;67.49;102318.16;5096018;27;96764;-29
2023/06/03 05:39:52;;;;;;;2.40;1.30;;;;;;;13.53;67.46;102308.94;5095747;27;97417;-26
2023/06/03 05:42:18;;;;;;;1.92;1.35;;;;;;;13.67;67.40;102318.28;5095818;27;99122;-27
2023/06/03 05:44:44;;;;;;;2.10;1.00;;;;;;;13.70;66.63;102312.66;5095806;27;96597;-28
2023/06/03 05:47:10;;;;;;;2.45;1.30;;;;;;;13.80;66.75;102324.88;5077320;27;96875;-27
2023/06/03 05:49:35;;;;;;;1.90;1.08;;;;;;;13.86;66.12;102319.09;5077288;27;98067;-27
2023/06/03 05:52:00;;;;;;;1.70;1.27;;;;;;;13.86;66.12;102316.38;5095794;27;99175;-27
2023/06/03 05:54:28;;;;;;;3.65;1.50;;;;;;;13.96;65.58;102314.91;5096000;27;97609;-27
2023/06/03 05:56:55;;;;;;;1.83;1.00;;;;;;;14.05;65.61;102313.56;5077545;27;97518;-27
2023/06/03 05:59:21;;;;;;;2.00;1.13;;;;;;;14.10;65.21;102313.31;5095804;27;98041;-27
2023/06/03 06:01:46;;;;;;;2.08;1.23;;;;;;;14.24;65.07;102313.47;5095278;27;106335;-27
2023/06/03 06:04:11;;;;;;;2.70;1.25;;;;;;;14.34;64.74;102324.75;5095406;27;96558;-27
2023/06/03 06:06:37;;;;;;;2.53;1.50;;;;;;;14.42;65.03;102319.78;5095682;27;100630;-28
2023/06/03 06:09:02;;;;;;;2.55;1.30;;;;;;;14.57;64.48;102323.56;5095628;27;97967;-26
2023/06/03 06:11:27;;;;;;;4.35;1.23;;;;;;;14.71;64.16;102328.25;5095028;27;97789;-27
2023/06/03 06:13:53;;;;;;;2.17;1.33;;;;;;;14.77;63.76;102320.59;5095737;27;96677;-29
2023/06/03 06:16:18;;;;;;;3.05;1.27;;;;;;;14.87;63.64;102323.69;5095411;27;96794;-27
2023/06/03 06:18:44;;;;;;;4.95;1.25;;;;;;;14.89;63.34;102312.69;5095366;27;97848;-27
2023/06/03 06:21:09;;;;;;;2.00;1.30;;;;;;;15.02;63.04;102319.22;5095637;27;99063;-27
2023/06/03 06:23:35;;;;;;;2.58;1.25;;;;;;;15.17;62.78;102318.34;5095280;27;96613;-27
2023/06/03 06:26:00;;;;;;;2.70;1.20;;;;;;;15.25;61.90;102320.63;5076767;27;96851;-27
2023/06/03 06:28:27;;;;;;;3.53;1.40;;;;;;;15.29;61.77;102328.53;5094846;27;98512;-27
2023/06/03 06:30:53;;;;;;;4.93;0.98;;;;;;;15.36;61.83;102320.00;5076431;27;101584;-27
2023/06/03 06:33:19;;;;;;;2.30;1.40;;;;;;;15.40;61.07;102319.75;5076284;27;96645;-27
2023/06/03 06:35:44;;;;;;;1.77;0.93;;;;;;;15.53;60.57;102328.09;5094681;27;96966;-27
2023/06/03 06:38:11;;;;;;;1.38;1.02;;;;;;;15.63;61.07;102315.63;5095213;27;99374;-27
2023/06/03 06:40:40;;;;;;;1.38;0.90;;;;;;;15.79;60.44;102321.13;5076432;27;101092;-27
2023/06/03 06:43:07;;;;;;;5.40;0.90;;;;;;;15.89;59.86;102327.78;5094963;27;96613;-27
2023/06/03 06:45:36;;;;;;;1.38;0.93;;;;;;;15.98;59.88;102306.34;5076657;27;96897;-26
2023/06/03 06:48:06;;;;;;;1.92;0.93;;;;;;;16.06;58.73;102315.81;5076252;27;101491;-27
2023/06/03 06:50:45;;;;;;;1.63;1.08;;;;;;;16.20;59.13;102327.78;5076288;27;100914;-27
2023/06/03 06:53:12;;;;;;;5.45;1.40;;;;;;;16.28;58.81;102312.66;5075912;27;97021;-28
2023/06/03 06:55:41;;;;;;;1.85;1.00;;;;;;;16.39;58.47;102320.19;5076407;27;96890;-28
2023/06/03 06:58:10;;;;;;;1.42;1.05;;;;;;;16.54;58.61;102315.59;5076097;27;101002;-29
2023/06/03 07:00:36;;;;;;;1.80;1.10;;;;;;;16.67;57.88;102312.97;5076090;27;100955;-27
2023/06/03 07:03:02;;;;;;;1.92;1.08;;;;;;;16.85;57.02;102319.13;5094865;27;96460;-26
2023/06/03 07:05:27;;;;;;;1.33;0.95;;;;;;;16.95;56.75;102314.84;5095094;27;96762;-27
2023/06/03 07:07:52;;;;;;;5.15;1.20;;;;;;;17.08;56.34;102320.38;5094698;27;107559;-27
2023/06/03 07:10:21;;;;;;;2.13;0.98;;;;;;;17.16;56.60;102307.97;5093956;27;113605;-28
2023/06/03 07:12:51;;;;;;;1.70;1.05;;;;;;;17.27;55.52;102311.84;5094741;27;96551;-27
2023/06/03 07:15:17;;;;;;;2.63;1.10;;;;;;;17.40;56.37;102308.19;5076041;27;96694;-27
2023/06/03 07:17:42;;;;;;;2.63;1.08;;;;;;;17.55;55.71;102319.09;5074940;27;100935;-27
2023/06/03 07:20:14;;;;;;;3.63;1.02;;;;;;;17.65;56.00;102319.34;5094064;27;98770;-27
2023/06/03 07:22:39;;;;;;;2.88;1.08;;;;;;;17.68;55.28;102325.47;5074933;27;96855;-27
2023/06/03 07:25:06;;;;;;;1.83;1.08;;;;;;;17.78;55.17;102323.00;5094257;27;96846;-28
2023/06/03 07:27:31;;;;;;;4.13;1.02;;;;;;;17.83;54.79;102307.16;5094500;27;98026;-27
2023/06/03 07:29:58;;;;;;;4.22;1.30;;;;;;;17.97;54.71;102311.66;5094324;27;97844;-28
2023/06/03 07:32:25;;;;;;;4.78;1.30;;;;;;;18.09;54.33;102307.19;5075391;27;96605;-27
2023/06/03 07:34:50;;;;;;;1.60;0.85;;;;;;;18.19;54.50;102314.69;5092148;27;96693;-33
2023/06/03 07:37:17;;;;;;;2.30;1.05;;;;;;;18.31;54.47;102312.94;5091654;27;98000;-28
2023/06/03 07:39:43;;;;;;;2.10;1.10;;;;;;;18.47;53.49;102318.19;5072587;27;101114;-28
2023/06/03 07:42:19;;;;;;;1.45;1.00;;;;;;;18.57;52.62;102326.66;5091249;27;97063;-34
2023/06/03 07:44:45;;;;;;;3.90;1.20;;;;;;;18.63;52.54;102317.97;5072900;27;97019;-30
2023/06/03 07:47:17;;;;;;;2.28;0.98;;;;;;;18.80;52.32;102327.75;5091393;27;99255;-30
2023/06/03 07:49:48;;;;;;;1.88;1.10;;;;;;;18.82;51.01;102317.53;5074830;27;100812;-27
2023/06/03 07:52:23;;;;;;;1.27;0.80;;;;;;;19.00;51.84;102316.22;5075366;27;96565;-27
2023/06/03 07:54:49;;;;;;;1.55;0.95;;;;;;;19.16;51.65;102312.31;5075589;27;96771;-27
2023/06/03 07:57:15;;;;;;;2.35;1.20;;;;;;;19.24;51.56;102319.00;5093947;27;98416;-27
2023/06/03 08:00:00;;;;;;;2.15;1.00;;;;;;;19.41;50.65;102327.84;5094204;27;97866;-27
2023/06/03 08:02:26;;;;;;;2.97;0.95;;;;;;;19.46;50.88;102331.97;5093188;27;97257;-27
2023/06/03 08:04:55;;;;;;;6.57;1.10;;;;;;;19.51;48.92;102335.25;5093405;27;108778;-27
2023/06/03 08:07:22;;;;;;;2.08;0.80;;;;;;;19.62;50.03;102339.09;5093206;27;98099;-27
2023/06/03 08:09:47;;;;;;;2.13;0.90;;;;;;;19.72;50.09;102326.41;5074909;27;101510;-27
2023/06/03 08:12:13;;;;;;;1.80;0.93;;;;;;;19.83;48.01;102325.56;5093913;27;96650;-27
2023/06/03 08:14:39;;;;;;;2.00;0.80;;;;;;;19.92;49.64;102328.47;5093662;27;96799;-27
2023/06/03 08:17:10;;;;;;;1.23;0.68;;;;;;;20.10;48.05;102325.31;5074810;27;101019;-28
2023/06/03 08:19:36;;;;;;;0.83;0.40;;;;;;;20.23;47.70;102331.59;5093179;27;98840;-27
2023/06/03 08:22:01;;;;;;;2.70;0.75;;;;;;;20.34;47.34;102339.00;5074990;27;96805;-27
2023/06/03 08:24:27;;;;;;;2.45;0.80;;;;;;;20.34;47.37;102328.88;5075166;27;96865;-27
2023/06/03 08:26:52;;;;;;;2.70;0.93;;;;;;;20.47;46.20;102327.88;5093270;27;104897;-27
2023/06/03 08:29:18;;;;;;;0.60;0.35;;;;;;;20.53;45.87;102333.78;5093506;27;97789;-27
2023/06/03 08:31:43;;;;;;;1.55;0.70;;;;;;;20.67;46.38;102329.09;5092740;27;96888;-27
2023/06/03 08:34:09;;;;;;;0.63;0.45;;;;;;;20.71;45.69;102322.31;5093074;27;96875;-26
2023/06/03 08:36:35;;;;;;;1.45;0.77;;;;;;;20.89;44.73;102325.44;5092622;27;100796;-28
2023/06/03 08:39:01;;;;;;;1.77;0.88;;;;;;;20.96;43.96;102324.81;5093206;27;99240;-27
2023/06/03 08:41:37;;;;;;;1.58;0.77;;;;;;;21.07;43.70;102312.94;5074716;27;96525;-28
2023/06/03 08:44:09;;;;;;;1.13;0.73;;;;;;;21.11;41.56;102319.03;5074613;27;96674;-27
2023/06/03 08:46:46;;;;;;;1.48;0.90;;;;;;;21.12;42.99;102310.66;5074732;27;101194;-28
2023/06/03 08:49:27;;;;;;;0.73;0.60;;;;;;;21.27;42.89;102316.75;5093806;27;97120;-26
2023/06/03 08:51:54;;;;;;;1.17;0.68;;;;;;;21.37;42.10;102309.47;5074636;27;96584;-27
2023/06/03 08:54:21;;;;;;;2.95;1.05;;;;;;;21.51;43.51;102308.34;5074559;27;96895;-26
2023/06/03 08:57:00;;;;;;;0.75;0.50;;;;;;;21.67;42.50;102301.53;5073898;27;100895;-28
2023/06/03 08:59:28;;;;;;;1.15;0.70;;;;;;;21.77;41.52;102308.88;5074537;27;100948;-27
2023/06/03 09:01:56;;;;;;;2.22;0.68;;;;;;;21.70;40.23;102315.06;5074500;27;96728;-27
2023/06/03 09:04:21;;;;;;;3.35;0.93;;;;;;;21.61;39.04;102312.06;5074429;27;96822;-28
2023/06/03 09:06:49;;;;;;;2.45;0.90;;;;;;;21.78;39.87;102302.31;5093216;27;97357;-27
2023/06/03 09:09:15;;;;;;;2.75;0.95;;;;;;;21.96;38.34;102313.66;5074269;27;101539;-27
2023/06/03 09:11:43;;;;;;;1.35;0.73;;;;;;;21.97;39.34;102297.97;5074340;27;96742;-27
2023/06/03 09:14:10;;;;;;;0.90;0.60;;;;;;;22.06;40.07;102297.19;5074651;27;96919;-27
2023/06/03 09:16:36;;;;;;;3.50;0.50;;;;;;;22.18;40.75;102298.88;5074143;27;101232;-28
2023/06/03 09:19:02;;;;;;;1.15;0.82;;;;;;;22.32;39.54;102292.16;5074024;27;98868;-27
2023/06/03 09:21:28;;;;;;;1.27;0.50;;;;;;;22.47;38.68;102298.19;5073706;27;96947;-27
2023/06/03 09:23:54;;;;;;;0.77;0.52;;;;;;;22.55;39.77;102303.03;5092889;27;96765;-27
2023/06/03 09:26:20;;;;;;;4.40;0.80;;;;;;;22.52;38.05;102309.72;5092853;27;97885;-27
2023/06/03 09:28:46;;;;;;;0.80;0.55;;;;;;;22.48;38.42;102294.44;5073876;27;100848;-27
2023/06/03 09:31:12;;;;;;;1.45;0.68;;;;;;;22.45;37.38;102301.13;5092821;27;96538;-28
2023/06/03 09:33:38;;;;;;;1.83;0.80;;;;;;;22.59;36.20;102304.50;5092597;27;96871;-27
2023/06/03 09:36:10;;;;;;;1.40;0.55;;;;;;;22.64;36.76;102299.44;5092190;27;97976;-27
2023/06/03 09:38:55;;;;;;;1.38;0.70;;;;;;;22.79;36.28;102284.25;5092733;27;99707;-29
2023/06/03 09:41:22;;;;;;;0.80;0.52;;;;;;;23.00;37.15;102291.63;5092570;27;96549;-29
2023/06/03 09:44:08;;;;;;;2.15;0.82;;;;;;;22.93;35.09;102285.78;5073752;27;96879;-29
2023/06/03 09:46:34;;;;;;;1.33;0.75;;;;;;;23.07;36.25;102299.25;5093305;27;98048;-29
2023/06/03 09:49:14;;;;;;;2.33;0.82;;;;;;;23.14;35.91;102294.00;5077247;27;100862;-30
2023/06/03 09:51:47;;;;;;;1.67;0.80;;;;;;;23.24;36.29;102283.84;5077552;27;96619;-29
2023/06/03 09:54:17;;;;;;;1.30;0.68;;;;;;;23.44;36.12;102292.19;5077488;27;96908;-27
2023/06/03 09:56:47;;;;;;;1.73;0.70;;;;;;;23.43;34.20;102280.25;5095594;27;99978;-27
2023/06/03 09:59:25;;;;;;;3.08;0.77;;;;;;;23.42;35.54;102285.91;5095457;27;99346;-26
2023/06/03 10:01:54;;;;;;;1.00;0.50;;;;;;;23.61;35.83;102293.34;5096123;27;96584;-27
2023/06/03 10:04:23;;;;;;;1.23;0.75;;;;;;;23.71;33.55;102286.78;5077404;27;96900;-27
2023/06/03 10:07:14;;;;;;;1.50;0.70;;;;;;;23.84;35.31;102291.22;5076866;27;99347;-26
2023/06/03 10:09:50;;;;;;;4.18;0.90;;;;;;;23.77;33.69;102292.81;5095227;27;99588;-26
2023/06/03 10:12:28;;;;;;;4.15;0.80;;;;;;;23.62;34.09;102286.78;5094504;27;96957;-27
2023/06/03 10:14:56;;;;;;;2.35;0.65;;;;;;;23.79;34.49;102288.00;5076867;27;96937;-27
2023/06/03 10:17:22;;;;;;;1.13;0.50;;;;;;;23.89;33.41;102299.94;5076741;27;98975;-27
2023/06/03 10:19:47;;;;;;;1.27;0.60;;;;;;;23.54;32.10;102287.53;5094821;27;99119;-27
2023/06/03 10:22:18;;;;;;;1.42;0.55;;;;;;;23.56;32.96;102290.16;5094969;27;96717;-27
2023/06/03 10:24:46;;;;;;;0.77;0.52;;;;;;;23.58;33.77;102288.13;5076435;27;96686;-27
2023/06/03 10:27:13;;;;;;;1.25;0.55;;;;;;;23.67;30.95;102285.34;5093773;27;97740;-27
2023/06/03 10:29:39;;;;;;;1.60;0.68;;;;;;;23.68;33.60;102281.56;5076927;27;100920;-27
2023/06/03 10:32:10;;;;;;;1.27;0.73;;;;;;;23.82;32.94;102282.19;5095129;27;96622;-27
2023/06/03 10:34:39;;;;;;;0.68;0.50;;;;;;;23.91;32.71;102292.38;5076571;27;96829;-27
2023/06/03 10:37:06;;;;;;;1.58;0.90;;;;;;;24.08;32.47;102283.31;5072212;27;100784;-27
2023/06/03 10:39:32;;;;;;;1.67;0.77;;;;;;;24.12;32.80;102278.34;5073145;27;100920;-27
2023/06/03 10:41:59;;;;;;;0.82;0.50;;;;;;;23.93;32.71;102270.94;5073257;27;96686;-27
2023/06/03 10:44:25;;;;;;;1.27;0.70;;;;;;;24.11;33.08;102293.22;5073115;27;96812;-27
2023/06/03 10:46:56;;;;;;;1.75;0.70;;;;;;;24.16;33.19;102279.81;5071628;27;99762;-30
2023/06/03 10:49:26;;;;;;;2.35;0.70;;;;;;;24.21;32.29;102291.31;5070377;27;99336;-32
2023/06/03 10:52:09;;;;;;;3.33;0.88;;;;;;;24.32;33.24;102293.03;5071943;27;96792;-31
2023/06/03 10:55:05;;;;;;;0.80;0.40;;;;;;;24.31;31.74;102280.19;5072438;27;96686;-27
2023/06/03 10:57:46;;;;;;;1.25;0.52;;;;;;;24.41;31.73;102289.38;5071498;27;98472;-28
2023/06/03 11:00:12;;;;;;;1.65;0.70;;;;;;;24.44;32.15;102280.75;5070637;27;101545;-28
2023/06/03 11:03:06;;;;;;;2.70;0.63;;;;;;;24.35;31.45;102287.19;5072370;27;97280;-28
2023/06/03 11:05:32;;;;;;;2.42;0.68;;;;;;;24.49;32.37;102281.22;5072769;27;97382;-27
2023/06/03 11:07:58;;;;;;;1.33;0.60;;;;;;;24.63;32.05;102282.63;5073728;27;99332;-27
2023/06/03 11:10:40;;;;;;;2.92;0.45;;;;;;;24.62;31.41;102260.59;5074133;27;97617;-27
2023/06/03 11:13:07;;;;;;;1.15;0.57;;;;;;;24.68;31.52;102284.94;5072774;27;96689;-27
2023/06/03 11:16:00;;;;;;;1.02;0.60;;;;;;;24.77;31.10;102281.25;5072648;27;96884;-27
2023/06/03 11:18:27;;;;;;;1.35;0.68;;;;;;;24.85;31.01;102274.94;5073454;27;99309;-27
2023/06/03 11:20:53;;;;;;;1.65;0.65;;;;;;;24.92;30.99;102290.81;5072795;27;100882;-27
2023/06/03 11:23:41;;;;;;;1.35;0.63;;;;;;;24.82;28.69;102284.44;5072454;27;96541;-29
2023/06/03 11:26:32;;;;;;;1.70;0.70;;;;;;;24.80;30.34;102286.50;5073938;27;96794;-28
2023/06/03 11:28:58;;;;;;;0.90;0.77;;;;;;;24.88;30.90;102292.13;5070185;27;100952;-27